Time;durP1;ratioP1;P1;durP2;ratioP2;P2;SDS_P1;SDS_P2;PMS_P1;PMS_P2;Temp;Humidity;BMP_temperature;BMP_pressure;BME280_temperature;BME280_humidity;BME280_pressure;Samples;Min_cycle;Max_cycle;Signal;HPM_P1;HPM_P2
2022/08/29 00:02:17;;;;;;;14.15;9.10;;;;;;;;;;5070704;28;20024;-56
2022/08/29 00:04:42;;;;;;;16.15;9.50;;;;;;;;;;5053658;28;20017;-57
2022/08/29 00:07:07;;;;;;;14.25;10.15;;;;;;;;;;5054192;28;20035;-57
2022/08/29 00:09:33;;;;;;;16.00;10.15;;;;;;;;;;5067299;28;20032;-57
2022/08/29 00:11:58;;;;;;;13.27;9.00;;;;;;;;;;5069517;28;20028;-56
2022/08/29 00:14:24;;;;;;;15.45;10.13;;;;;;;;;;5067921;28;20028;-56
2022/08/29 00:16:49;;;;;;;16.08;10.80;;;;;;;;;;5053509;28;20017;-56
2022/08/29 00:19:15;;;;;;;13.48;9.90;;;;;;;;;;5066015;28;20031;-57
2022/08/29 00:21:40;;;;;;;13.13;8.98;;;;;;;;;;5056528;28;20318;-56
2022/08/29 00:24:06;;;;;;;15.25;9.13;;;;;;;;;;5073477;28;20027;-57
2022/08/29 00:26:32;;;;;;;16.15;10.18;;;;;;;;;;5073381;28;20020;-56
2022/08/29 00:28:57;;;;;;;13.85;9.18;;;;;;;;;;5072765;28;20393;-56
2022/08/29 00:31:22;;;;;;;17.13;9.82;;;;;;;;;;5072243;28;20036;-57
2022/08/29 00:33:50;;;;;;;16.63;9.32;;;;;;;;;;5056835;28;20031;-57
2022/08/29 00:36:15;;;;;;;12.90;9.02;;;;;;;;;;5073439;28;20036;-56
2022/08/29 00:38:41;;;;;;;13.20;9.40;;;;;;;;;;5073107;28;20481;-57
2022/08/29 00:41:06;;;;;;;14.75;9.98;;;;;;;;;;5073202;28;20127;-57
2022/08/29 00:43:35;;;;;;;13.52;9.45;;;;;;;;;;5071698;28;20009;-57
2022/08/29 00:46:19;;;;;;;18.38;9.93;;;;;;;;;;5066872;28;20044;-56
2022/08/29 00:48:52;;;;;;;14.10;9.70;;;;;;;;;;5065365;28;20029;-56
2022/08/29 00:51:19;;;;;;;13.77;10.15;;;;;;;;;;5072486;28;20020;-57
2022/08/29 00:53:48;;;;;;;20.25;9.65;;;;;;;;;;5067087;28;20091;-57
2022/08/29 00:56:16;;;;;;;15.13;10.45;;;;;;;;;;5052763;28;20029;-56
2022/08/29 00:58:50;;;;;;;15.45;9.60;;;;;;;;;;5065873;28;20086;-56
2022/08/29 01:01:16;;;;;;;13.93;9.32;;;;;;;;;;5072424;28;20051;-56
2022/08/29 01:03:41;;;;;;;12.60;9.15;;;;;;;;;;5066070;28;20021;-56
2022/08/29 01:06:07;;;;;;;17.17;9.15;;;;;;;;;;5052652;28;20025;-56
2022/08/29 01:08:33;;;;;;;16.33;10.65;;;;;;;;;;5066094;28;20020;-56
2022/08/29 01:13:47;;;;;;;16.73;9.70;;;;;;;;;;5051755;28;20552;-56
2022/08/29 01:16:14;;;;;;;14.95;10.30;;;;;;;;;;5064468;28;20029;-56
2022/08/29 01:18:44;;;;;;;14.07;9.63;;;;;;;;;;5056219;28;20033;-57
2022/08/29 01:21:37;;;;;;;15.00;10.07;;;;;;;;;;5052343;28;20025;-56
2022/08/29 01:24:14;;;;;;;16.20;9.95;;;;;;;;;;5052171;28;20013;-56
2022/08/29 01:26:43;;;;;;;17.55;10.43;;;;;;;;;;5068522;28;20115;-56
2022/08/29 01:29:08;;;;;;;12.80;9.40;;;;;;;;;;5050395;28;20402;-56
2022/08/29 01:31:40;;;;;;;15.73;9.52;;;;;;;;;;5060143;28;20021;-56
2022/08/29 01:34:07;;;;;;;15.27;9.95;;;;;;;;;;5058260;28;20036;-56
2022/08/29 01:36:41;;;;;;;16.85;10.45;;;;;;;;;;5068320;28;20029;-56
2022/08/29 01:39:07;;;;;;;14.02;9.55;;;;;;;;;;5051847;28;20029;-56
2022/08/29 01:41:33;;;;;;;16.40;10.50;;;;;;;;;;5051311;28;20451;-56
2022/08/29 01:44:00;;;;;;;18.70;10.50;;;;;;;;;;5064213;28;20017;-56
2022/08/29 01:46:33;;;;;;;15.88;10.43;;;;;;;;;;5055668;28;20564;-56
2022/08/29 01:49:01;;;;;;;17.13;10.75;;;;;;;;;;5065244;28;20033;-56
2022/08/29 01:51:26;;;;;;;13.93;10.05;;;;;;;;;;5053859;28;20380;-56
2022/08/29 01:53:52;;;;;;;16.00;10.30;;;;;;;;;;5051479;28;20035;-56
2022/08/29 01:56:26;;;;;;;15.75;10.45;;;;;;;;;;5068059;28;20032;-56
2022/08/29 01:58:53;;;;;;;18.00;11.13;;;;;;;;;;5058044;28;20508;-56
2022/08/29 02:01:22;;;;;;;14.68;10.25;;;;;;;;;;5071088;28;20037;-56
2022/08/29 02:03:47;;;;;;;17.90;10.85;;;;;;;;;;5056316;28;20532;-56
2022/08/29 02:06:13;;;;;;;17.30;10.40;;;;;;;;;;5054457;28;20063;-56
2022/08/29 02:08:40;;;;;;;16.40;10.85;;;;;;;;;;5065142;28;20025;-56
2022/08/29 02:11:10;;;;;;;17.52;10.75;;;;;;;;;;5061856;28;20482;-56
2022/08/29 02:13:49;;;;;;;16.80;10.77;;;;;;;;;;5070532;28;20032;-56
2022/08/29 02:16:15;;;;;;;17.38;11.18;;;;;;;;;;5067397;28;20039;-56
2022/08/29 02:18:41;;;;;;;14.95;10.00;;;;;;;;;;5059333;28;20036;-56
2022/08/29 02:21:07;;;;;;;16.45;11.52;;;;;;;;;;5059663;28;20017;-56
2022/08/29 02:23:35;;;;;;;16.48;10.70;;;;;;;;;;5066142;28;20016;-56
2022/08/29 02:26:00;;;;;;;15.23;10.05;;;;;;;;;;5071675;28;20120;-56
2022/08/29 02:28:26;;;;;;;17.83;11.60;;;;;;;;;;5071124;28;20541;-55
2022/08/29 02:30:52;;;;;;;16.02;10.55;;;;;;;;;;5071340;28;20398;-56
2022/08/29 02:33:20;;;;;;;20.60;11.13;;;;;;;;;;5055167;28;20090;-56
2022/08/29 02:35:47;;;;;;;15.68;10.73;;;;;;;;;;5054208;28;20028;-55
2022/08/29 02:38:13;;;;;;;20.27;10.77;;;;;;;;;;5071165;28;20100;-56
2022/08/29 02:40:40;;;;;;;18.25;11.20;;;;;;;;;;5071252;28;20028;-56
2022/08/29 02:43:06;;;;;;;21.60;12.05;;;;;;;;;;5070381;28;20127;-56
2022/08/29 02:45:31;;;;;;;16.50;10.70;;;;;;;;;;5054843;28;20199;-55
2022/08/29 02:47:58;;;;;;;18.95;11.52;;;;;;;;;;5064718;28;20032;-56
2022/08/29 02:50:24;;;;;;;19.15;10.63;;;;;;;;;;5061820;28;20074;-56
2022/08/29 02:52:50;;;;;;;17.20;11.07;;;;;;;;;;5056085;28;20349;-56
2022/08/29 02:55:18;;;;;;;14.60;10.23;;;;;;;;;;5069832;28;20035;-56
2022/08/29 02:57:44;;;;;;;16.33;11.07;;;;;;;;;;5059470;28;20386;-56
2022/08/29 03:00:15;;;;;;;17.48;11.07;;;;;;;;;;5074836;28;20081;-55
2022/08/29 03:02:41;;;;;;;16.15;10.93;;;;;;;;;;5074346;28;20078;-56
2022/08/29 03:05:07;;;;;;;17.63;11.18;;;;;;;;;;5056757;28;20025;-55
2022/08/29 03:07:32;;;;;;;17.20;10.93;;;;;;;;;;5054705;28;20025;-56
2022/08/29 03:09:58;;;;;;;16.30;10.77;;;;;;;;;;5054732;28;20039;-56
2022/08/29 03:12:23;;;;;;;16.73;10.70;;;;;;;;;;5067190;28;20025;-56
2022/08/29 03:14:49;;;;;;;17.05;10.93;;;;;;;;;;5057809;28;20467;-56
2022/08/29 03:17:14;;;;;;;15.13;10.55;;;;;;;;;;5074742;28;20025;-57
2022/08/29 03:19:40;;;;;;;18.10;10.23;;;;;;;;;;5074554;28;20052;-56
2022/08/29 03:22:05;;;;;;;17.95;10.27;;;;;;;;;;5061654;28;20056;-55
2022/08/29 03:24:33;;;;;;;17.77;10.82;;;;;;;;;;5070169;28;20027;-55
2022/08/29 03:26:58;;;;;;;17.20;10.35;;;;;;;;;;5074558;28;20451;-56
2022/08/29 03:29:24;;;;;;;14.65;10.43;;;;;;;;;;5067952;28;20093;-56
2022/08/29 03:31:50;;;;;;;18.27;10.20;;;;;;;;;;5062444;28;20024;-55
2022/08/29 03:34:15;;;;;;;20.48;10.45;;;;;;;;;;5069153;28;20028;-56
2022/08/29 03:36:40;;;;;;;18.88;11.32;;;;;;;;;;5071633;28;20040;-56
2022/08/29 03:39:06;;;;;;;17.17;10.27;;;;;;;;;;5060755;28;20063;-56
2022/08/29 03:41:32;;;;;;;18.67;10.98;;;;;;;;;;5073632;28;20393;-56
2022/08/29 03:43:58;;;;;;;16.05;10.45;;;;;;;;;;5066921;28;20374;-56
2022/08/29 03:46:25;;;;;;;18.52;10.73;;;;;;;;;;5074418;28;20021;-55
2022/08/29 03:48:50;;;;;;;15.70;10.18;;;;;;;;;;5068143;28;20047;-55
2022/08/29 03:51:16;;;;;;;18.80;12.00;;;;;;;;;;5053808;28;20108;-56
2022/08/29 03:53:42;;;;;;;18.23;11.90;;;;;;;;;;5066885;28;20390;-55
2022/08/29 03:56:08;;;;;;;14.65;10.07;;;;;;;;;;5057704;28;20032;-56
2022/08/29 03:58:33;;;;;;;16.05;10.13;;;;;;;;;;5073636;28;20379;-55
2022/08/29 04:00:59;;;;;;;15.15;10.07;;;;;;;;;;5073914;28;20032;-55
2022/08/29 04:03:25;;;;;;;18.92;10.93;;;;;;;;;;5072965;28;20031;-55
2022/08/29 04:05:52;;;;;;;18.85;10.95;;;;;;;;;;5072630;28;20518;-55
2022/08/29 04:08:18;;;;;;;19.38;10.63;;;;;;;;;;5053661;28;20033;-56
2022/08/29 04:10:44;;;;;;;17.25;10.55;;;;;;;;;;5061430;28;20233;-55
2022/08/29 04:13:10;;;;;;;13.60;9.93;;;;;;;;;;5060710;28;20029;-55
2022/08/29 04:15:39;;;;;;;16.02;10.25;;;;;;;;;;5069183;28;20020;-56
2022/08/29 04:18:06;;;;;;;18.25;10.88;;;;;;;;;;5057097;28;20016;-56
2022/08/29 04:20:36;;;;;;;19.58;10.45;;;;;;;;;;5073741;28;20467;-55
2022/08/29 04:23:02;;;;;;;18.38;10.73;;;;;;;;;;5072721;28;20393;-56
2022/08/29 04:25:34;;;;;;;17.20;10.50;;;;;;;;;;5073503;28;20024;-55
2022/08/29 04:28:00;;;;;;;16.15;9.35;;;;;;;;;;5072907;28;20032;-55
2022/08/29 04:30:26;;;;;;;22.08;11.15;;;;;;;;;;5065330;28;20127;-55
2022/08/29 04:32:52;;;;;;;19.20;10.85;;;;;;;;;;5064090;28;20486;-56
2022/08/29 04:35:18;;;;;;;19.70;10.63;;;;;;;;;;5057543;28;20025;-56
2022/08/29 04:37:44;;;;;;;16.70;10.85;;;;;;;;;;5072644;28;20501;-56
2022/08/29 04:40:14;;;;;;;20.60;10.80;;;;;;;;;;5065919;28;20033;-57
2022/08/29 04:42:39;;;;;;;;;;;;;;;;;;5051510;28;20402;-57
2022/08/29 04:45:07;;;;;;;15.85;10.23;;;;;;;;;;5069220;28;19978;-56
2022/08/29 04:47:36;;;;;;;17.58;10.65;;;;;;;;;;5056520;28;20038;-55
2022/08/29 04:50:01;;;;;;;16.67;10.90;;;;;;;;;;5065401;28;20107;-56
2022/08/29 04:52:27;;;;;;;18.52;10.70;;;;;;;;;;5052060;28;20128;-56
2022/08/29 04:54:53;;;;;;;17.23;10.60;;;;;;;;;;5052767;28;20394;-56
2022/08/29 04:57:19;;;;;;;18.73;10.75;;;;;;;;;;5052817;28;20031;-56
2022/08/29 04:59:46;;;;;;;19.20;11.35;;;;;;;;;;5052179;28;20017;-55
2022/08/29 05:02:11;;;;;;;19.52;11.00;;;;;;;;;;5051783;28;20147;-55
2022/08/29 05:04:37;;;;;;;20.00;11.80;;;;;;;;;;5052591;28;20104;-56
2022/08/29 05:07:02;;;;;;;19.30;10.57;;;;;;;;;;5052820;28;20067;-56
2022/08/29 05:09:29;;;;;;;19.67;11.13;;;;;;;;;;5057856;28;20540;-57
2022/08/29 05:11:54;;;;;;;20.80;10.70;;;;;;;;;;5070414;28;20394;-56
2022/08/29 05:14:20;;;;;;;19.48;10.43;;;;;;;;;;5058446;28;20032;-57
2022/08/29 05:16:47;;;;;;;17.27;10.55;;;;;;;;;;5068572;28;20433;-56
2022/08/29 05:19:13;;;;;;;18.25;11.25;;;;;;;;;;5052374;28;20028;-56
2022/08/29 05:21:39;;;;;;;19.85;11.48;;;;;;;;;;5060385;28;20225;-56
2022/08/29 05:24:08;;;;;;;21.27;10.73;;;;;;;;;;5072134;28;20091;-56
2022/08/29 05:26:37;;;;;;;17.30;10.18;;;;;;;;;;5055438;28;20028;-56
2022/08/29 05:29:05;;;;;;;21.17;10.47;;;;;;;;;;5051499;28;20025;-57
2022/08/29 05:31:30;;;;;;;19.48;10.30;;;;;;;;;;5060239;28;20324;-56
2022/08/29 05:33:56;;;;;;;18.83;10.25;;;;;;;;;;5059166;28;20025;-56
2022/08/29 05:36:22;;;;;;;17.92;10.52;;;;;;;;;;5052462;28;20401;-56
2022/08/29 05:38:47;;;;;;;19.10;10.13;;;;;;;;;;5067761;28;20036;-57
2022/08/29 05:41:13;;;;;;;19.17;11.55;;;;;;;;;;5051728;28;20051;-56
2022/08/29 05:43:38;;;;;;;16.65;10.30;;;;;;;;;;5062145;28;20020;-57
2022/08/29 05:46:08;;;;;;;19.67;10.75;;;;;;;;;;5071897;28;20115;-57
2022/08/29 05:48:34;;;;;;;18.95;10.52;;;;;;;;;;5055376;28;20036;-57
2022/08/29 05:51:00;;;;;;;14.48;10.18;;;;;;;;;;5072121;28;20470;-57
2022/08/29 05:53:26;;;;;;;18.55;10.07;;;;;;;;;;5059106;28;20113;-56
2022/08/29 05:55:52;;;;;;;15.68;10.82;;;;;;;;;;5066862;28;20020;-57
2022/08/29 05:58:18;;;;;;;18.10;10.55;;;;;;;;;;5054680;28;20035;-56
2022/08/29 06:00:47;;;;;;;21.13;10.77;;;;;;;;;;5064824;28;20033;-56
2022/08/29 06:03:13;;;;;;;19.60;11.65;;;;;;;;;;5061682;28;20158;-56
2022/08/29 06:05:39;;;;;;;17.80;11.32;;;;;;;;;;5056961;28;20025;-57
2022/08/29 06:08:05;;;;;;;18.27;10.98;;;;;;;;;;5067581;28;20028;-57
2022/08/29 06:10:31;;;;;;;20.45;11.25;;;;;;;;;;5051522;28;20029;-56
2022/08/29 06:12:57;;;;;;;21.42;11.32;;;;;;;;;;5059997;28;20035;-57
2022/08/29 06:15:24;;;;;;;18.10;11.30;;;;;;;;;;5056228;28;20056;-57
2022/08/29 06:17:49;;;;;;;21.83;12.63;;;;;;;;;;5052836;28;20528;-57
2022/08/29 06:20:15;;;;;;;25.15;13.52;;;;;;;;;;5071608;28;20032;-57
2022/08/29 06:22:40;;;;;;;26.17;13.27;;;;;;;;;;5070567;28;20515;-56
2022/08/29 06:25:07;;;;;;;25.58;13.93;;;;;;;;;;5071323;28;20026;-57
2022/08/29 06:27:33;;;;;;;26.42;14.93;;;;;;;;;;5054971;28;20029;-56
2022/08/29 06:29:58;;;;;;;25.75;14.23;;;;;;;;;;5065787;28;20029;-56
2022/08/29 06:32:24;;;;;;;25.17;13.93;;;;;;;;;;5050436;28;20059;-56
2022/08/29 06:34:49;;;;;;;24.42;14.77;;;;;;;;;;5063256;28;20028;-57
2022/08/29 06:37:15;;;;;;;23.73;15.02;;;;;;;;;;5054173;28;20029;-56
2022/08/29 06:39:40;;;;;;;38.55;18.48;;;;;;;;;;5070654;28;20036;-57
2022/08/29 06:42:06;;;;;;;36.35;18.25;;;;;;;;;;5063100;28;20029;-56
2022/08/29 06:44:32;;;;;;;36.53;18.98;;;;;;;;;;5051775;28;20394;-56
2022/08/29 06:46:57;;;;;;;41.72;20.75;;;;;;;;;;5051245;28;20032;-56
2022/08/29 06:49:23;;;;;;;37.97;19.90;;;;;;;;;;5069703;28;20040;-57
2022/08/29 06:51:53;;;;;;;35.42;19.67;;;;;;;;;;5070439;28;20103;-56
2022/08/29 06:54:21;;;;;;;30.63;18.17;;;;;;;;;;5070795;28;20035;-57
2022/08/29 06:56:49;;;;;;;32.47;18.20;;;;;;;;;;5056215;28;20398;-57
2022/08/29 06:59:15;;;;;;;35.33;18.30;;;;;;;;;;5050592;28;20071;-56
2022/08/29 07:01:42;;;;;;;36.67;19.75;;;;;;;;;;5050207;28;20044;-56
2022/08/29 07:04:08;;;;;;;32.67;18.45;;;;;;;;;;5050852;28;20014;-56
2022/08/29 07:06:35;;;;;;;31.27;18.10;;;;;;;;;;5065320;28;20028;-57
2022/08/29 07:09:00;;;;;;;28.90;16.67;;;;;;;;;;5051045;28;20033;-57
2022/08/29 07:11:28;;;;;;;31.52;17.15;;;;;;;;;;5050444;28;20031;-57
2022/08/29 07:14:00;;;;;;;35.13;19.10;;;;;;;;;;5060387;28;20489;-57
2022/08/29 07:16:26;;;;;;;30.05;17.92;;;;;;;;;;5070931;28;20070;-57
2022/08/29 07:18:52;;;;;;;34.53;18.05;;;;;;;;;;5070803;28;20044;-57
2022/08/29 07:21:20;;;;;;;28.98;16.80;;;;;;;;;;5070396;28;20028;-57
2022/08/29 07:23:45;;;;;;;25.88;15.80;;;;;;;;;;5070533;28;20020;-57
2022/08/29 07:26:14;;;;;;;28.55;16.45;;;;;;;;;;5057048;28;20571;-57
2022/08/29 07:28:40;;;;;;;26.30;15.90;;;;;;;;;;5050328;28;20028;-56
2022/08/29 07:31:05;;;;;;;28.58;16.58;;;;;;;;;;5056503;28;20032;-57
2022/08/29 07:33:31;;;;;;;28.20;15.43;;;;;;;;;;5069818;28;20037;-57
2022/08/29 07:35:58;;;;;;;23.35;14.43;;;;;;;;;;5070705;28;20093;-57
2022/08/29 07:38:24;;;;;;;20.52;13.90;;;;;;;;;;5053225;28;20033;-57
2022/08/29 07:41:00;;;;;;;26.73;13.80;;;;;;;;;;5068472;28;20027;-56
2022/08/29 07:43:26;;;;;;;25.40;14.63;;;;;;;;;;5068722;28;20078;-57
2022/08/29 07:45:52;;;;;;;22.02;13.88;;;;;;;;;;5054200;28;20068;-56
2022/08/29 07:48:17;;;;;;;23.45;14.05;;;;;;;;;;5055569;28;20032;-57
2022/08/29 07:50:43;;;;;;;24.08;14.27;;;;;;;;;;5068576;28;20504;-57
2022/08/29 07:53:08;;;;;;;20.83;13.27;;;;;;;;;;5053094;28;20371;-57
2022/08/29 07:55:35;;;;;;;26.65;13.70;;;;;;;;;;5054177;28;20297;-57
2022/08/29 07:58:02;;;;;;;25.35;14.68;;;;;;;;;;5053591;28;20045;-56
2022/08/29 08:00:28;;;;;;;20.90;14.23;;;;;;;;;;5053824;28;20540;-56
2022/08/29 08:02:53;;;;;;;21.35;13.75;;;;;;;;;;5061453;28;20029;-56
2022/08/29 08:05:19;;;;;;;21.42;13.93;;;;;;;;;;5073766;28;20402;-57
2022/08/29 08:07:44;;;;;;;23.95;13.25;;;;;;;;;;5074009;28;20032;-57
2022/08/29 08:10:10;;;;;;;24.77;13.85;;;;;;;;;;5073683;28;20028;-57
2022/08/29 08:12:35;;;;;;;23.15;14.20;;;;;;;;;;5065501;28;20025;-56
2022/08/29 08:15:02;;;;;;;20.42;13.73;;;;;;;;;;5064249;28;20501;-57
2022/08/29 08:17:27;;;;;;;25.63;14.93;;;;;;;;;;5058521;28;20095;-57
2022/08/29 08:19:52;;;;;;;24.17;14.07;;;;;;;;;;5069520;28;20498;-57
2022/08/29 08:22:18;;;;;;;23.20;14.20;;;;;;;;;;5052885;28;20036;-57
2022/08/29 08:24:43;;;;;;;22.35;14.07;;;;;;;;;;5063320;28;20504;-57
2022/08/29 08:27:09;;;;;;;24.65;14.35;;;;;;;;;;5059492;28;20025;-57
2022/08/29 08:29:34;;;;;;;22.20;14.13;;;;;;;;;;5064937;28;20027;-56
2022/08/29 08:32:00;;;;;;;22.95;14.90;;;;;;;;;;5067204;28;20064;-57
2022/08/29 08:34:27;;;;;;;19.90;14.00;;;;;;;;;;5052753;28;20025;-57
2022/08/29 08:36:53;;;;;;;25.60;15.65;;;;;;;;;;5053448;28;20032;-57
2022/08/29 08:39:19;;;;;;;18.45;12.63;;;;;;;;;;5051794;28;20037;-57
2022/08/29 08:41:59;;;;;;;19.58;12.50;;;;;;;;;;5052549;28;20049;-57
2022/08/29 08:44:42;;;;;;;17.10;10.63;;;;;;;;;;5053194;28;20024;-56
2022/08/29 08:47:10;;;;;;;16.48;11.15;;;;;;;;;;5053323;28;20032;-57
2022/08/29 08:50:10;;;;;;;18.30;11.77;;;;;;;;;;5068456;28;20025;-57
2022/08/29 08:52:42;;;;;;;18.38;11.00;;;;;;;;;;5051698;28;20486;-57
2022/08/29 08:55:13;;;;;;;18.23;11.15;;;;;;;;;;5069010;28;20110;-57
2022/08/29 08:57:48;;;;;;;19.65;10.00;;;;;;;;;;5052775;28;20036;-57
2022/08/29 09:00:14;;;;;;;16.48;10.50;;;;;;;;;;5063847;28;20020;-57
2022/08/29 09:02:44;;;;;;;16.15;11.20;;;;;;;;;;5056996;28;20033;-57
2022/08/29 09:05:12;;;;;;;15.35;10.38;;;;;;;;;;5052737;28;20036;-57
2022/08/29 09:08:00;;;;;;;15.25;10.18;;;;;;;;;;5059787;28;20117;-57
2022/08/29 09:10:42;;;;;;;19.80;11.30;;;;;;;;;;5058516;28;20029;-57
2022/08/29 09:13:55;;;;;;;16.17;11.13;;;;;;;;;;5055124;28;20123;-57
2022/08/29 09:16:26;;;;;;;16.13;11.60;;;;;;;;;;5071359;28;20040;-57
2022/08/29 09:18:51;;;;;;;17.58;11.48;;;;;;;;;;5072316;28;20039;-57
2022/08/29 09:21:20;;;;;;;17.55;11.98;;;;;;;;;;5071955;28;20489;-57
2022/08/29 09:23:48;;;;;;;17.65;12.40;;;;;;;;;;5072077;28;20521;-57
2022/08/29 09:26:20;;;;;;;16.88;11.50;;;;;;;;;;5057678;28;20032;-57
2022/08/29 09:28:46;;;;;;;15.05;11.23;;;;;;;;;;5067764;28;20027;-57
2022/08/29 09:31:26;;;;;;;18.70;11.02;;;;;;;;;;5052207;28;20040;-57
2022/08/29 09:34:31;;;;;;;14.63;10.77;;;;;;;;;;5064462;28;20057;-57
2022/08/29 09:36:57;;;;;;;15.13;11.45;;;;;;;;;;5052043;28;20024;-57
2022/08/29 09:39:28;;;;;;;15.45;11.38;;;;;;;;;;5051924;28;20543;-57
2022/08/29 09:42:10;;;;;;;15.98;10.80;;;;;;;;;;5065451;28;20025;-57
2022/08/29 09:44:37;;;;;;;17.40;11.50;;;;;;;;;;5060172;28;20074;-56
2022/08/29 09:47:18;;;;;;;14.80;10.95;;;;;;;;;;5059743;28;20103;-57
2022/08/29 09:49:59;;;;;;;17.73;10.93;;;;;;;;;;5058342;28;20051;-57
2022/08/29 09:52:25;;;;;;;15.40;10.98;;;;;;;;;;5070938;28;20020;-57
2022/08/29 09:54:51;;;;;;;17.20;11.40;;;;;;;;;;5064172;28;20041;-57
2022/08/29 09:57:21;;;;;;;15.65;11.50;;;;;;;;;;5063142;28;20028;-57
2022/08/29 09:59:49;;;;;;;16.02;9.77;;;;;;;;;;5056313;28;20025;-58
2022/08/29 10:02:25;;;;;;;13.55;9.85;;;;;;;;;;5069307;28;20036;-57
2022/08/29 10:04:55;;;;;;;12.90;9.40;;;;;;;;;;5059625;28;20037;-57
2022/08/29 10:07:26;;;;;;;12.55;9.73;;;;;;;;;;5058511;28;20064;-57
2022/08/29 10:10:05;;;;;;;20.90;10.57;;;;;;;;;;5068427;28;20028;-56
2022/08/29 10:13:07;;;;;;;14.00;9.70;;;;;;;;;;5063598;28;20021;-57
2022/08/29 10:15:56;;;;;;;16.08;10.63;;;;;;;;;;5052459;28;20033;-57
2022/08/29 10:18:26;;;;;;;15.38;8.93;;;;;;;;;;5051232;28;20063;-58
2022/08/29 10:21:01;;;;;;;18.77;8.93;;;;;;;;;;5051171;28;20029;-58
2022/08/29 10:23:26;;;;;;;16.75;9.45;;;;;;;;;;5050565;28;20585;-58
2022/08/29 10:25:52;;;;;;;11.52;9.25;;;;;;;;;;5071354;28;20062;-57
2022/08/29 10:28:22;;;;;;;15.48;10.20;;;;;;;;;;5070863;28;20036;-58
2022/08/29 10:30:59;;;;;;;14.45;9.63;;;;;;;;;;5071210;28;20451;-58
2022/08/29 10:33:24;;;;;;;11.93;8.27;;;;;;;;;;5070243;28;20028;-57
2022/08/29 10:35:50;;;;;;;14.80;8.77;;;;;;;;;;5071264;28;20036;-57
2022/08/29 10:38:21;;;;;;;13.00;8.57;;;;;;;;;;5062698;28;20033;-57
2022/08/29 10:40:54;;;;;;;11.40;7.95;;;;;;;;;;5051301;28;20029;-58
2022/08/29 10:43:22;;;;;;;13.60;8.23;;;;;;;;;;5050424;28;20044;-57
2022/08/29 10:45:53;;;;;;;12.45;7.70;;;;;;;;;;5056828;28;20052;-58
2022/08/29 10:48:35;;;;;;;11.63;7.72;;;;;;;;;;5059458;28;20025;-58
2022/08/29 10:51:09;;;;;;;12.57;8.20;;;;;;;;;;5051288;28;20478;-58
2022/08/29 10:53:41;;;;;;;12.02;8.27;;;;;;;;;;5049894;28;20479;-58
2022/08/29 10:56:17;;;;;;;12.60;8.30;;;;;;;;;;5051076;28;20029;-58
2022/08/29 10:58:57;;;;;;;10.65;7.75;;;;;;;;;;5065424;28;20090;-57
2022/08/29 11:01:35;;;;;;;10.85;7.60;;;;;;;;;;5050173;28;20037;-58
2022/08/29 11:04:32;;;;;;;9.18;7.90;;;;;;;;;;5060882;28;20021;-58
2022/08/29 11:07:06;;;;;;;10.85;8.10;;;;;;;;;;5053042;28;20055;-58
2022/08/29 11:09:44;;;;;;;12.70;8.10;;;;;;;;;;5057698;28;20068;-58
2022/08/29 11:12:16;;;;;;;11.68;7.50;;;;;;;;;;5057827;28;20036;-58
2022/08/29 11:15:21;;;;;;;12.02;7.45;;;;;;;;;;5050412;28;20032;-58
2022/08/29 11:17:54;;;;;;;11.35;7.90;;;;;;;;;;5062819;28;20474;-58
2022/08/29 11:20:26;;;;;;;10.25;7.18;;;;;;;;;;5074689;28;20035;-58
2022/08/29 11:23:04;;;;;;;7.65;6.40;;;;;;;;;;5073703;28;20107;-58
2022/08/29 11:25:33;;;;;;;8.98;6.60;;;;;;;;;;5074824;28;20028;-58
2022/08/29 11:28:22;;;;;;;8.90;6.25;;;;;;;;;;5074237;28;20063;-58
2022/08/29 11:31:18;;;;;;;10.90;6.55;;;;;;;;;;5074579;28;20020;-58
2022/08/29 11:33:44;;;;;;;10.13;6.50;;;;;;;;;;5062231;28;20039;-58
2022/08/29 11:36:56;;;;;;;10.35;6.25;;;;;;;;;;5054620;28;20024;-58
2022/08/29 11:39:45;;;;;;;12.57;6.80;;;;;;;;;;5063838;28;20025;-58
2022/08/29 11:42:15;;;;;;;10.63;6.57;;;;;;;;;;5073749;28;20352;-58
2022/08/29 11:44:51;;;;;;;8.43;7.00;;;;;;;;;;5067159;28;20029;-58
2022/08/29 11:47:35;;;;;;;10.63;6.88;;;;;;;;;;5064335;28;20032;-58
2022/08/29 11:50:15;;;;;;;8.05;6.20;;;;;;;;;;5054066;28;20029;-58
2022/08/29 11:52:59;;;;;;;11.10;7.28;;;;;;;;;;5059430;28;20075;-58
2022/08/29 11:55:30;;;;;;;10.27;6.35;;;;;;;;;;5061668;28;20025;-58
2022/08/29 11:58:20;;;;;;;10.45;6.40;;;;;;;;;;5068181;28;20437;-58
2022/08/29 12:00:50;;;;;;;9.15;6.57;;;;;;;;;;5064032;28;20044;-58
2022/08/29 12:03:33;;;;;;;12.43;6.53;;;;;;;;;;5072963;28;20543;-59
2022/08/29 12:06:20;;;;;;;7.07;6.18;;;;;;;;;;5057558;28;20394;-58
2022/08/29 12:08:46;;;;;;;14.40;6.85;;;;;;;;;;5064660;28;20394;-58
2022/08/29 12:11:12;;;;;;;12.43;6.78;;;;;;;;;;5065913;28;20024;-58
2022/08/29 12:13:46;;;;;;;8.48;6.85;;;;;;;;;;5072334;28;20033;-57
2022/08/29 12:16:16;;;;;;;8.85;5.90;;;;;;;;;;5068494;28;20040;-57
2022/08/29 12:18:53;;;;;;;8.20;6.20;;;;;;;;;;5063018;28;20029;-57
2022/08/29 12:21:38;;;;;;;8.85;6.53;;;;;;;;;;5073001;28;20095;-57
2022/08/29 12:24:06;;;;;;;9.27;6.40;;;;;;;;;;5053297;28;20021;-57
2022/08/29 12:26:40;;;;;;;7.32;5.82;;;;;;;;;;5051840;28;20402;-57
2022/08/29 12:29:14;;;;;;;10.27;7.45;;;;;;;;;;5052760;28;20028;-57
2022/08/29 12:32:16;;;;;;;14.20;8.65;;;;;;;;;;5068884;28;20032;-57
2022/08/29 12:35:16;;;;;;;13.90;8.43;;;;;;;;;;5052866;28;20490;-57
2022/08/29 12:38:31;;;;;;;9.63;7.68;;;;;;;;;;5057217;28;20490;-57
2022/08/29 12:41:03;;;;;;;11.55;6.50;;;;;;;;;;5090802;28;20117;-57
2022/08/29 12:43:41;;;;;;;7.50;6.00;;;;;;;;;;5058492;28;20025;-57
2022/08/29 12:46:30;;;;;;;10.77;7.22;;;;;;;;;;5053241;28;20028;-57
2022/08/29 12:49:07;;;;;;;9.38;5.93;;;;;;;;;;5052957;28;20510;-57
2022/08/29 12:51:46;;;;;;;7.28;5.88;;;;;;;;;;5052196;28;20562;-57
2022/08/29 12:54:11;;;;;;;8.30;5.80;;;;;;;;;;5063095;28;20402;-57
2022/08/29 12:56:46;;;;;;;7.50;5.97;;;;;;;;;;5072839;28;20024;-58
2022/08/29 12:59:20;;;;;;;9.48;5.75;;;;;;;;;;5072622;28;20032;-58
2022/08/29 13:01:49;;;;;;;6.80;5.97;;;;;;;;;;5064063;28;20498;-58
2022/08/29 13:04:21;;;;;;;8.13;6.05;;;;;;;;;;5052503;28;20148;-58
2022/08/29 13:06:53;;;;;;;6.63;5.63;;;;;;;;;;5053220;28;20478;-58
2022/08/29 13:09:32;;;;;;;10.13;5.85;;;;;;;;;;5072378;28;20028;-58
2022/08/29 13:12:08;;;;;;;7.05;5.30;;;;;;;;;;5060850;28;20104;-58
2022/08/29 13:14:50;;;;;;;6.65;5.25;;;;;;;;;;5067993;28;20029;-58
2022/08/29 13:17:18;;;;;;;7.88;5.72;;;;;;;;;;5072575;28;20032;-58
2022/08/29 13:20:22;;;;;;;7.60;5.50;;;;;;;;;;5062055;28;20115;-58
2022/08/29 13:22:47;;;;;;;10.38;5.80;;;;;;;;;;5054554;28;20033;-58
2022/08/29 13:25:15;;;;;;;8.85;5.45;;;;;;;;;;5065652;28;20437;-58
2022/08/29 13:27:41;;;;;;;7.90;5.25;;;;;;;;;;5062963;28;20031;-58
2022/08/29 13:30:07;;;;;;;6.03;5.30;;;;;;;;;;5071684;28;20032;-58
2022/08/29 13:32:32;;;;;;;6.60;5.78;;;;;;;;;;5052813;28;20504;-58
2022/08/29 13:35:05;;;;;;;8.10;5.90;;;;;;;;;;5057927;28;20032;-58
2022/08/29 13:37:37;;;;;;;7.97;5.90;;;;;;;;;;5061209;28;20029;-58
2022/08/29 13:40:33;;;;;;;6.40;5.80;;;;;;;;;;5051875;28;20102;-58
2022/08/29 13:42:59;;;;;;;8.00;5.20;;;;;;;;;;5050642;28;20035;-58
2022/08/29 13:45:25;;;;;;;31.02;11.15;;;;;;;;;;5060092;28;20024;-58
2022/08/29 13:47:56;;;;;;;39.42;13.15;;;;;;;;;;5066885;28;20025;-58
2022/08/29 13:50:26;;;;;;;23.67;8.98;;;;;;;;;;5052218;28;20371;-58
2022/08/29 13:52:54;;;;;;;8.18;5.50;;;;;;;;;;5051098;28;20024;-58
2022/08/29 13:55:20;;;;;;;9.00;5.33;;;;;;;;;;5051635;28;20394;-58
2022/08/29 13:57:50;;;;;;;8.55;5.60;;;;;;;;;;5051793;28;20029;-58
2022/08/29 14:00:16;;;;;;;9.13;6.15;;;;;;;;;;5055450;28;20059;-58
2022/08/29 14:02:42;;;;;;;6.35;5.30;;;;;;;;;;5071022;28;20029;-58
2022/08/29 14:05:08;;;;;;;13.57;6.15;;;;;;;;;;5071678;28;20020;-58
2022/08/29 14:07:36;;;;;;;6.85;5.63;;;;;;;;;;5071681;28;20033;-58
2022/08/29 14:10:02;;;;;;;6.40;5.30;;;;;;;;;;5071226;28;20028;-58
2022/08/29 14:12:27;;;;;;;10.43;5.40;;;;;;;;;;5070800;28;20798;-58
2022/08/29 14:14:53;;;;;;;10.75;6.90;;;;;;;;;;5059909;28;20021;-58
2022/08/29 14:17:19;;;;;;;9.05;5.90;;;;;;;;;;5066267;28;20089;-58
2022/08/29 14:19:45;;;;;;;6.57;5.05;;;;;;;;;;5068795;28;20021;-58
2022/08/29 14:22:10;;;;;;;8.55;5.55;;;;;;;;;;5050616;28;20386;-58
2022/08/29 14:24:36;;;;;;;8.80;5.47;;;;;;;;;;5051123;28;20013;-58
2022/08/29 14:27:02;;;;;;;6.38;5.40;;;;;;;;;;5065150;28;20108;-58
2022/08/29 14:29:32;;;;;;;8.85;5.50;;;;;;;;;;5069804;28;20032;-58
2022/08/29 14:31:58;;;;;;;8.70;5.63;;;;;;;;;;5056269;28;20021;-58
2022/08/29 14:34:24;;;;;;;7.88;5.68;;;;;;;;;;5070955;28;20020;-58
2022/08/29 14:36:49;;;;;;;6.72;5.80;;;;;;;;;;5056603;28;20033;-58
2022/08/29 14:39:15;;;;;;;9.57;5.78;;;;;;;;;;5051041;28;20040;-58
2022/08/29 14:41:41;;;;;;;10.50;6.10;;;;;;;;;;5055278;28;20062;-58
2022/08/29 14:44:07;;;;;;;9.68;6.20;;;;;;;;;;5070601;28;20021;-58